Camiri, Bolivia
Current Conditions -  °F | °C
As of 9:00 AM on Wednesday 22 Oct 2014 (Local Time) from SLET Reporting Station
Clear Clear  
Wind Chill: 88°   Ceiling: Unl
Heat Index: 89°   Visibility: 5mi
Dew Point: 64°   Wind: 7mph
Humidity: 46%   Direction: 110°ESE
Pressure: 29.97"   Gusts: NA
Location:  20.05°S, 63.52°W
Report Text: SLET 221300Z 11006KT 8000 NSC 31/18 Q1015
Loading
Personal Weather Stations






























Interactive Weather Map
Tropical Storm Tracking
New forecast layout! Learn more

10-Day Weather Forecast

Advertisements
Track Severe Weather on mobile